createdAt,value
2022-12-28T00:00:12.538Z,88.50
2022-12-28T00:02:52.356Z,88.70
2022-12-28T00:05:23.093Z,89.10
2022-12-28T00:07:54.100Z,89.20
2022-12-28T00:11:07.812Z,89.70
2022-12-28T00:12:58.425Z,89.90
2022-12-28T00:15:29.237Z,89.90
2022-12-28T00:18:01.139Z,90.10
2022-12-28T00:20:52.233Z,90.20
2022-12-28T00:23:22.948Z,90.20
2022-12-28T00:25:54.358Z,90.10
2022-12-28T00:28:25.095Z,90.20
2022-12-28T00:30:57.114Z,90.10
2022-12-28T00:33:27.766Z,90.10
2022-12-28T00:36:03.535Z,90.20
2022-12-28T00:38:34.491Z,90.20
2022-12-28T00:41:05.891Z,90.10
2022-12-28T00:43:36.974Z,90.00
2022-12-28T00:46:08.010Z,90.00
2022-12-28T00:48:38.837Z,90.00
2022-12-28T00:51:12.464Z,89.60
2022-12-28T00:53:43.564Z,89.60
2022-12-28T00:56:18.764Z,89.60
2022-12-28T00:58:49.634Z,89.50
2022-12-28T01:01:24.052Z,89.50
2022-12-28T01:03:56.335Z,89.40
2022-12-28T01:06:27.286Z,89.20
2022-12-28T01:08:58.545Z,89.30
2022-12-28T01:11:32.614Z,88.90
2022-12-28T01:14:05.727Z,88.70
2022-12-28T01:16:38.570Z,88.40
2022-12-28T01:19:10.149Z,88.40
2022-12-28T01:21:42.694Z,88.30
2022-12-28T01:24:13.367Z,87.90
2022-12-28T01:26:45.924Z,87.90
2022-12-28T01:29:16.155Z,88.00
2022-12-28T01:31:46.914Z,88.00
2022-12-28T01:34:17.584Z,87.80
2022-12-28T01:36:49.384Z,87.40
2022-12-28T01:39:22.903Z,87.00
2022-12-28T01:41:53.627Z,86.50
2022-12-28T01:44:32.394Z,83.90
2022-12-28T01:47:09.312Z,80.70
2022-12-28T01:49:58.811Z,80.10
2022-12-28T01:52:37.804Z,78.70
2022-12-28T01:55:18.370Z,77.90
2022-12-28T01:58:00.415Z,76.70
2022-12-28T02:00:31.821Z,76.80
2022-12-28T02:03:14.134Z,76.10
2022-12-28T02:05:50.742Z,75.70
2022-12-28T02:08:24.510Z,75.80
2022-12-28T02:10:56.099Z,75.60
2022-12-28T02:13:28.465Z,74.50
2022-12-28T02:15:59.186Z,74.10
2022-12-28T02:18:30.754Z,74.30
2022-12-28T02:21:32.409Z,74.40
2022-12-28T02:24:18.038Z,74.40
2022-12-28T02:27:16.827Z,74.40
2022-12-28T02:30:02.423Z,74.60
2022-12-28T02:32:52.841Z,74.70
2022-12-28T02:35:51.128Z,75.20
2022-12-28T02:38:25.530Z,75.00
2022-12-28T02:40:58.862Z,75.30
2022-12-28T02:43:29.904Z,75.40
2022-12-28T02:46:17.838Z,75.30
2022-12-28T02:49:07.600Z,75.40
2022-12-28T02:51:43.799Z,75.30
2022-12-28T02:54:57.248Z,75.30
2022-12-28T02:57:54.681Z,75.60
2022-12-28T03:00:30.769Z,75.40
2022-12-28T03:03:25.382Z,75.10
2022-12-28T03:06:19.533Z,75.20
2022-12-28T03:09:03.764Z,74.90
2022-12-28T03:11:49.130Z,74.70
2022-12-28T03:14:39.412Z,74.20
2022-12-28T03:17:40.252Z,74.20
2022-12-28T03:20:34.279Z,73.80
2022-12-28T03:23:25.441Z,74.20
2022-12-28T03:26:18.024Z,74.00
2022-12-28T03:29:07.569Z,73.80
2022-12-28T03:31:39.427Z,73.50
2022-12-28T03:34:14.322Z,73.30
2022-12-28T03:36:47.653Z,73.60
2022-12-28T03:39:33.051Z,73.20
2022-12-28T03:42:29.932Z,73.40
2022-12-28T03:45:03.179Z,72.50
2022-12-28T03:47:36.150Z,73.00
2022-12-28T03:50:09.372Z,73.10
2022-12-28T03:52:40.245Z,72.90
2022-12-28T03:55:13.179Z,72.50
2022-12-28T03:57:44.418Z,72.20
2022-12-28T04:00:15.376Z,72.00
2022-12-28T04:02:46.782Z,71.80
2022-12-28T04:05:36.353Z,71.10
2022-12-28T04:08:07.390Z,70.60
2022-12-28T04:10:38.195Z,69.80
2022-12-28T04:13:10.019Z,69.90
2022-12-28T04:15:42.313Z,70.20
2022-12-28T04:18:13.115Z,69.30
2022-12-28T04:20:44.637Z,69.00
2022-12-28T04:23:17.678Z,68.30
2022-12-28T04:28:20.385Z,67.90
2022-12-28T04:30:53.353Z,67.40
2022-12-28T04:33:23.742Z,66.90
2022-12-28T04:35:54.581Z,66.30
2022-12-28T04:38:27.197Z,66.00
2022-12-28T04:40:57.728Z,65.40
2022-12-28T04:43:29.997Z,65.90
2022-12-28T04:46:03.110Z,64.80
2022-12-28T04:48:34.666Z,64.50
2022-12-28T04:51:14.324Z,63.10
2022-12-28T04:53:45.826Z,63.90
2022-12-28T04:56:18.640Z,62.90
2022-12-28T04:58:49.862Z,62.80
2022-12-28T05:01:24.746Z,63.10
2022-12-28T05:04:00.189Z,61.80
2022-12-28T05:06:31.143Z,60.20
2022-12-28T05:09:02.052Z,60.40
2022-12-28T05:11:33.945Z,60.30
2022-12-28T05:14:04.925Z,60.20
2022-12-28T05:16:35.885Z,60.60
2022-12-28T05:19:06.702Z,60.50
2022-12-28T05:21:37.705Z,59.20
2022-12-28T05:24:09.203Z,59.30
2022-12-28T05:26:40.570Z,60.10
2022-12-28T05:29:11.576Z,58.40
2022-12-28T05:31:42.993Z,58.30
2022-12-28T05:34:13.783Z,57.10
2022-12-28T05:36:49.988Z,57.40
2022-12-28T05:39:22.001Z,58.30
2022-12-28T05:41:52.727Z,57.10
2022-12-28T05:44:23.910Z,57.50
2022-12-28T05:46:56.926Z,57.90
2022-12-28T05:49:27.805Z,57.20
2022-12-28T05:51:59.789Z,56.80
2022-12-28T05:54:30.809Z,57.90
2022-12-28T05:57:02.779Z,56.90
2022-12-28T05:59:33.703Z,56.90
2022-12-28T06:02:05.260Z,54.70
2022-12-28T06:04:37.665Z,56.50
2022-12-28T06:07:09.254Z,56.30
2022-12-28T06:09:42.086Z,56.10
2022-12-28T06:12:15.913Z,55.10
2022-12-28T06:14:50.350Z,54.50
2022-12-28T06:17:21.805Z,55.10
2022-12-28T06:19:55.788Z,55.00
2022-12-28T06:22:26.969Z,55.60
2022-12-28T06:24:58.539Z,55.00
2022-12-28T06:27:30.684Z,55.30
2022-12-28T06:30:02.997Z,54.10
2022-12-28T06:32:40.194Z,54.50
2022-12-28T06:35:16.263Z,54.60
2022-12-28T06:37:49.667Z,55.70
2022-12-28T06:40:28.385Z,54.80
2022-12-28T06:42:57.603Z,54.70
2022-12-28T06:45:31.118Z,54.90
2022-12-28T06:48:06.069Z,53.80
2022-12-28T06:50:40.144Z,53.70
2022-12-28T06:53:14.541Z,53.40
2022-12-28T06:56:00.660Z,52.50
2022-12-28T06:59:04.341Z,56.10
2022-12-28T07:01:47.591Z,53.70
2022-12-28T07:04:21.917Z,52.30
2022-12-28T07:06:55.549Z,52.00
2022-12-28T07:09:35.410Z,52.40
2022-12-28T07:12:09.232Z,52.80
2022-12-28T07:14:43.031Z,53.60
2022-12-28T07:17:16.439Z,51.90
2022-12-28T07:19:52.736Z,51.30
2022-12-28T07:22:28.717Z,51.80
2022-12-28T07:25:00.744Z,51.80
2022-12-28T07:27:31.900Z,51.60
2022-12-28T07:30:26.172Z,51.00
2022-12-28T07:32:50.949Z,51.50
2022-12-28T07:35:25.869Z,51.40
2022-12-28T07:37:59.572Z,50.90
2022-12-28T07:40:31.330Z,50.60
2022-12-28T07:43:05.074Z,50.50
2022-12-28T07:45:39.891Z,50.80
2022-12-28T07:48:11.081Z,52.50
2022-12-28T07:50:46.481Z,53.00
2022-12-28T07:53:21.936Z,50.90
2022-12-28T07:56:02.164Z,51.40
2022-12-28T07:58:35.603Z,50.50
2022-12-28T08:01:10.678Z,51.00
2022-12-28T08:03:42.863Z,51.80
2022-12-28T08:06:17.493Z,51.00
2022-12-28T08:08:57.544Z,51.40
2022-12-28T08:11:43.040Z,50.70
2022-12-28T08:14:09.227Z,51.00
2022-12-28T08:16:47.575Z,51.50
2022-12-28T08:19:18.434Z,51.70
2022-12-28T08:21:52.426Z,51.80
2022-12-28T08:24:25.301Z,51.40
2022-12-28T08:26:56.019Z,51.90
2022-12-28T08:29:34.773Z,52.50
2022-12-28T08:32:05.597Z,51.90
2022-12-28T08:34:38.872Z,51.90
2022-12-28T08:37:11.734Z,51.30
2022-12-28T08:39:43.327Z,51.80
2022-12-28T08:42:17.187Z,51.40
2022-12-28T08:45:07.032Z,51.70
2022-12-28T08:47:34.793Z,51.30
2022-12-28T08:50:05.452Z,50.60
2022-12-28T08:52:36.126Z,50.60
2022-12-28T08:55:25.945Z,50.30
2022-12-28T08:57:56.427Z,50.50
2022-12-28T09:00:27.126Z,50.50
2022-12-28T09:03:01.160Z,50.40
2022-12-28T09:05:39.197Z,50.00
2022-12-28T09:08:04.509Z,50.20
2022-12-28T09:10:35.296Z,50.40
2022-12-28T09:13:13.623Z,50.50
2022-12-28T09:15:42.535Z,50.90
2022-12-28T09:18:21.465Z,51.70
2022-12-28T09:20:52.328Z,51.20
2022-12-28T09:23:26.623Z,50.80
2022-12-28T09:26:00.884Z,51.10
2022-12-28T09:28:31.480Z,50.70
2022-12-28T09:31:05.853Z,50.90
2022-12-28T09:34:34.301Z,50.60
2022-12-28T09:36:40.445Z,51.00
2022-12-28T09:39:15.261Z,50.70
2022-12-28T09:42:03.829Z,51.30
2022-12-28T09:44:43.162Z,51.40
2022-12-28T09:47:22.718Z,51.30
2022-12-28T09:50:08.173Z,51.80
2022-12-28T09:52:49.806Z,51.70
2022-12-28T09:55:21.847Z,51.30
2022-12-28T09:57:55.144Z,51.70
2022-12-28T10:00:44.595Z,51.70
2022-12-28T10:03:24.757Z,52.00
2022-12-28T10:05:59.461Z,52.30
2022-12-28T10:08:42.059Z,52.50
2022-12-28T10:11:15.194Z,52.70
2022-12-28T10:13:56.165Z,53.10
2022-12-28T10:16:22.455Z,53.10
2022-12-28T10:18:53.952Z,53.20
2022-12-28T10:24:33.056Z,53.20
2022-12-28T10:26:50.422Z,53.30
2022-12-28T10:29:25.536Z,53.70
2022-12-28T10:32:16.344Z,53.70
2022-12-28T10:35:06.373Z,53.90
2022-12-28T10:37:39.304Z,54.50
2022-12-28T10:40:12.821Z,55.10
2022-12-28T10:42:48.895Z,54.60
2022-12-28T10:45:22.421Z,54.50
2022-12-28T10:48:01.808Z,55.00
2022-12-28T10:50:57.543Z,55.10
2022-12-28T10:53:43.028Z,55.40
2022-12-28T10:56:24.923Z,55.30
2022-12-28T10:59:18.503Z,55.40
2022-12-28T11:01:52.698Z,55.40
2022-12-28T11:04:25.061Z,55.60
2022-12-28T11:07:03.906Z,55.70
2022-12-28T11:09:37.144Z,55.70
2022-12-28T11:12:29.866Z,55.80
2022-12-28T11:18:24.728Z,55.20
2022-12-28T11:21:00.015Z,55.40
2022-12-28T11:23:36.037Z,55.50
2022-12-28T11:26:06.964Z,55.70
2022-12-28T11:28:38.131Z,56.60
2022-12-28T11:31:12.265Z,56.20
2022-12-28T11:33:45.750Z,56.20
2022-12-28T11:36:22.017Z,56.10
2022-12-28T11:38:55.128Z,56.30
2022-12-28T11:41:34.095Z,56.30
2022-12-28T11:44:09.770Z,56.50
2022-12-28T11:46:42.648Z,56.50
2022-12-28T11:49:34.241Z,56.40
2022-12-28T11:52:24.783Z,56.60
2022-12-28T11:54:57.673Z,56.80
2022-12-28T11:57:39.792Z,57.00
2022-12-28T12:00:25.246Z,57.20
2022-12-28T12:02:58.928Z,57.10
2022-12-28T12:05:44.464Z,57.10
2022-12-28T12:08:17.782Z,57.30
2022-12-28T12:10:50.894Z,57.50
2022-12-28T12:13:33.145Z,57.70
2022-12-28T12:16:09.736Z,57.80
2022-12-28T12:18:58.402Z,57.80
2022-12-28T12:21:41.043Z,58.00
2022-12-28T12:24:28.922Z,58.00
2022-12-28T12:27:04.084Z,58.00
2022-12-28T12:29:45.250Z,58.00
2022-12-28T12:32:23.032Z,58.10
2022-12-28T12:34:59.173Z,58.00
2022-12-28T12:38:06.899Z,58.10
2022-12-28T12:40:49.227Z,58.20
2022-12-28T12:43:34.395Z,58.40
2022-12-28T12:46:36.400Z,58.30
2022-12-28T12:49:26.065Z,58.40
2022-12-28T12:52:04.864Z,58.40
2022-12-28T12:55:00.334Z,58.10
2022-12-28T12:57:45.440Z,58.00
2022-12-28T13:00:25.315Z,58.00
2022-12-28T13:03:22.999Z,57.90
2022-12-28T13:05:58.472Z,57.80
2022-12-28T13:08:31.703Z,57.70
2022-12-28T13:11:04.182Z,57.60
2022-12-28T13:13:37.423Z,57.70
2022-12-28T13:16:16.448Z,57.80
2022-12-28T13:19:05.092Z,58.00
2022-12-28T13:21:58.873Z,58.20
2022-12-28T13:24:31.526Z,58.30
2022-12-28T13:27:10.598Z,58.30
2022-12-28T13:29:38.937Z,58.50
2022-12-28T13:32:37.559Z,58.60
2022-12-28T13:35:07.965Z,58.70
2022-12-28T13:37:39.967Z,58.80
2022-12-28T13:40:20.057Z,59.70
2022-12-28T13:43:09.524Z,59.00
2022-12-28T13:45:40.383Z,59.10
2022-12-28T13:48:11.272Z,59.00
2022-12-28T13:50:43.574Z,59.10
2022-12-28T13:53:22.825Z,59.10
2022-12-28T13:55:59.039Z,59.20
2022-12-28T13:58:42.533Z,59.30
2022-12-28T14:01:23.103Z,59.40
2022-12-28T14:04:51.341Z,59.50
2022-12-28T14:06:51.206Z,59.70
2022-12-28T14:09:25.589Z,59.70
2022-12-28T14:12:08.800Z,59.90
2022-12-28T14:14:40.354Z,59.90
2022-12-28T14:17:11.903Z,60.00
2022-12-28T14:19:52.443Z,60.20
2022-12-28T14:22:40.538Z,60.20
2022-12-28T14:25:16.980Z,60.20
2022-12-28T14:28:00.192Z,60.40
2022-12-28T14:30:42.552Z,60.50
2022-12-28T14:33:24.695Z,60.50
2022-12-28T14:35:57.139Z,60.60
2022-12-28T14:38:29.890Z,60.80
2022-12-28T14:41:04.143Z,60.80
2022-12-28T14:43:39.301Z,61.00
2022-12-28T14:46:22.045Z,61.10
2022-12-28T14:48:52.931Z,61.30
2022-12-28T14:51:31.275Z,61.10
2022-12-28T14:54:19.822Z,61.10
2022-12-28T14:57:18.549Z,61.20
2022-12-28T14:59:51.968Z,61.40
2022-12-28T15:02:41.902Z,61.40
2022-12-28T15:05:37.591Z,61.50
2022-12-28T15:08:08.774Z,61.60
2022-12-28T15:11:00.099Z,61.70
2022-12-28T15:13:30.895Z,62.00
2022-12-28T15:16:03.834Z,61.70
2022-12-28T15:18:35.221Z,61.80
2022-12-28T15:21:09.330Z,61.70
2022-12-28T15:23:40.010Z,61.80
2022-12-28T15:26:13.471Z,62.20
2022-12-28T15:28:44.769Z,62.70
2022-12-28T15:31:19.817Z,63.30
2022-12-28T15:33:51.798Z,63.70
2022-12-28T15:36:25.563Z,64.10
2022-12-28T15:38:58.828Z,64.60
2022-12-28T15:41:52.087Z,64.90
2022-12-28T15:44:21.991Z,65.60
2022-12-28T15:46:55.808Z,66.40
2022-12-28T15:49:29.073Z,66.90
2022-12-28T15:52:02.075Z,67.40
2022-12-28T15:54:32.761Z,67.70
2022-12-28T15:57:06.336Z,67.90
2022-12-28T15:59:37.661Z,68.10
2022-12-28T16:02:08.650Z,68.40
2022-12-28T16:04:39.617Z,68.30
2022-12-28T16:07:10.335Z,68.60
2022-12-28T16:09:41.435Z,68.40
2022-12-28T16:12:12.145Z,68.40
2022-12-28T16:14:42.991Z,68.10
2022-12-28T16:17:13.756Z,68.90
2022-12-28T16:20:03.231Z,67.60
2022-12-28T16:22:34.139Z,67.70
2022-12-28T16:25:07.857Z,68.00
2022-12-28T16:27:38.624Z,68.10
2022-12-28T16:30:10.372Z,68.40
2022-12-28T16:33:03.678Z,68.80
2022-12-28T16:35:57.562Z,69.00
2022-12-28T16:38:28.879Z,69.80
2022-12-28T16:40:59.772Z,70.20
2022-12-28T16:43:32.737Z,70.80
2022-12-28T16:46:08.103Z,71.70
2022-12-28T16:51:36.349Z,72.50
2022-12-28T16:54:09.982Z,73.30
2022-12-28T16:56:42.300Z,73.90
2022-12-28T16:59:21.023Z,74.30
2022-12-28T17:02:07.258Z,75.60
2022-12-28T17:04:38.731Z,75.70
2022-12-28T17:07:09.563Z,75.80
2022-12-28T17:09:45.341Z,76.40
2022-12-28T17:15:11.795Z,76.40
2022-12-28T17:17:42.584Z,77.20
2022-12-28T17:20:13.906Z,77.20
2022-12-28T17:22:46.014Z,77.40
2022-12-28T17:25:18.299Z,77.60
2022-12-28T17:27:48.997Z,78.10
2022-12-28T17:30:19.692Z,78.20
2022-12-28T17:32:50.457Z,78.20
2022-12-28T17:35:21.343Z,78.40
2022-12-28T17:37:52.020Z,78.80
2022-12-28T17:40:23.130Z,79.10
2022-12-28T17:42:55.161Z,79.30
2022-12-28T17:45:25.827Z,79.00
2022-12-28T17:47:56.514Z,79.30
2022-12-28T17:50:27.317Z,79.60
2022-12-28T17:52:57.985Z,79.80
2022-12-28T17:55:31.860Z,79.90
2022-12-28T17:58:02.549Z,80.10
2022-12-28T18:00:33.351Z,80.30
2022-12-28T18:03:04.835Z,80.40
2022-12-28T18:05:36.609Z,80.10
2022-12-28T18:08:09.049Z,80.60
2022-12-28T18:10:39.790Z,80.70
2022-12-28T18:13:11.057Z,80.70
2022-12-28T18:15:41.849Z,81.10
2022-12-28T18:18:12.818Z,81.10
2022-12-28T18:20:46.415Z,81.20
2022-12-28T18:23:17.088Z,81.20
2022-12-28T18:25:47.826Z,81.50
2022-12-28T18:28:20.238Z,81.90
2022-12-28T18:30:50.643Z,81.90
2022-12-28T18:33:21.400Z,82.00
2022-12-28T18:36:03.733Z,82.10
2022-12-28T18:38:35.987Z,82.20
2022-12-28T18:41:06.999Z,82.50
2022-12-28T18:43:37.958Z,82.70
2022-12-28T18:46:13.065Z,82.80
2022-12-28T18:48:44.501Z,83.10
2022-12-28T18:51:19.395Z,83.00
2022-12-28T18:53:54.088Z,83.30
2022-12-28T18:56:27.761Z,83.40
2022-12-28T18:59:00.018Z,83.50
2022-12-28T19:04:03.798Z,83.90
2022-12-28T19:06:38.695Z,83.90
2022-12-28T19:09:12.877Z,84.10
2022-12-28T19:11:43.737Z,84.40
2022-12-28T19:14:19.371Z,84.50
2022-12-28T19:16:49.757Z,85.50
2022-12-28T19:19:21.535Z,84.70
2022-12-28T19:21:58.226Z,84.70
2022-12-28T19:24:24.378Z,84.90
2022-12-28T19:26:55.136Z,84.80
2022-12-28T19:29:25.816Z,85.10
2022-12-28T19:31:57.347Z,85.10
2022-12-28T19:34:28.091Z,85.30
2022-12-28T19:36:58.771Z,85.40
2022-12-28T19:39:34.770Z,85.30
2022-12-28T19:42:05.453Z,85.40
2022-12-28T19:44:38.175Z,85.10
2022-12-28T19:47:08.900Z,85.40
2022-12-28T19:49:39.599Z,85.40
2022-12-28T19:52:10.267Z,85.70
2022-12-28T19:54:40.944Z,85.80
2022-12-28T19:57:11.624Z,85.90
2022-12-28T19:59:42.292Z,86.10
2022-12-28T20:02:14.282Z,86.20
2022-12-28T20:04:45.033Z,86.00
2022-12-28T20:07:15.689Z,86.00
2022-12-28T20:09:46.404Z,86.10
2022-12-28T20:12:18.398Z,86.50
2022-12-28T20:14:49.058Z,86.50
2022-12-28T20:17:19.830Z,86.70
2022-12-28T20:19:50.599Z,87.10
2022-12-28T20:22:21.330Z,87.10
2022-12-28T20:24:52.072Z,87.20
2022-12-28T20:27:24.112Z,87.40
2022-12-28T20:29:54.990Z,87.30
2022-12-28T20:32:25.835Z,87.40
2022-12-28T20:34:56.627Z,87.30
2022-12-28T20:37:27.787Z,87.60
2022-12-28T20:39:58.444Z,87.60
2022-12-28T20:42:47.815Z,87.80
2022-12-28T20:45:18.630Z,88.00
2022-12-28T20:47:49.283Z,88.10
2022-12-28T20:50:20.185Z,88.10
2022-12-28T20:52:52.133Z,88.20
2022-12-28T20:55:27.293Z,88.10
2022-12-28T20:57:58.052Z,87.90
2022-12-28T21:00:28.875Z,87.90
2022-12-28T21:03:00.109Z,87.90
2022-12-28T21:05:30.763Z,87.80
2022-12-28T21:08:01.419Z,87.80
2022-12-28T21:10:32.111Z,87.60
2022-12-28T21:13:02.799Z,87.70
2022-12-28T21:15:33.494Z,87.60
2022-12-28T21:18:04.184Z,87.80
2022-12-28T21:20:38.967Z,87.90
2022-12-28T21:23:06.998Z,87.80
2022-12-28T21:25:37.639Z,87.80
2022-12-28T21:28:08.600Z,87.80
2022-12-28T21:30:39.324Z,88.00
2022-12-28T21:33:10.789Z,87.30
2022-12-28T21:35:41.732Z,88.00
2022-12-28T21:38:12.691Z,88.30
2022-12-28T21:40:43.379Z,88.20
2022-12-28T21:43:14.080Z,88.30
2022-12-28T21:45:44.755Z,88.40
2022-12-28T21:48:16.936Z,88.60
2022-12-28T21:50:47.577Z,88.40
2022-12-28T21:53:18.240Z,88.50
2022-12-28T21:55:49.108Z,88.80
2022-12-28T21:58:19.758Z,88.80
2022-12-28T22:01:08.176Z,88.80
2022-12-28T22:03:56.513Z,90.80
2022-12-28T22:06:27.196Z,89.00
2022-12-28T22:09:15.311Z,89.00
2022-12-28T22:12:03.536Z,89.00
2022-12-28T22:14:34.225Z,89.00
2022-12-28T22:17:08.379Z,88.90
2022-12-28T22:19:36.913Z,88.90
2022-12-28T22:22:07.606Z,88.80
2022-12-28T22:24:38.267Z,89.00
2022-12-28T22:27:08.970Z,88.90
2022-12-28T22:29:39.655Z,90.20
2022-12-28T22:32:10.435Z,88.90
2022-12-28T22:34:41.573Z,89.10
2022-12-28T22:37:13.652Z,88.80
2022-12-28T22:39:44.540Z,92.20
2022-12-28T22:42:16.731Z,89.20
2022-12-28T22:44:47.543Z,89.30
2022-12-28T22:47:18.222Z,89.30
2022-12-28T22:49:48.891Z,89.30
2022-12-28T22:52:19.591Z,89.00
2022-12-28T22:54:50.260Z,95.40
2022-12-28T22:57:20.993Z,89.30
2022-12-28T22:59:51.632Z,96.80
2022-12-28T23:02:22.720Z,89.30
2022-12-28T23:04:53.706Z,89.40
2022-12-28T23:07:24.407Z,89.40
2022-12-28T23:09:55.072Z,89.60
2022-12-28T23:12:25.868Z,89.80
2022-12-28T23:15:13.605Z,99.90
2022-12-28T23:17:44.687Z,90.00
2022-12-28T23:20:33.211Z,98.10
2022-12-28T23:23:05.252Z,97.60
2022-12-28T23:25:53.344Z,89.30
2022-12-28T23:28:24.056Z,90.00
2022-12-28T23:30:56.879Z,90.00
2022-12-28T23:33:27.597Z,90.10
2022-12-28T23:35:58.323Z,98.10
2022-12-28T23:38:29.637Z,90.20
2022-12-28T23:41:17.578Z,90.40
2022-12-28T23:43:48.250Z,99.90
2022-12-28T23:46:19.016Z,90.40
2022-12-28T23:48:49.711Z,99.90
2022-12-28T23:51:20.610Z,99.90
2022-12-28T23:53:51.276Z,90.70
2022-12-28T23:56:21.937Z,90.80
2022-12-28T23:58:52.822Z,90.60
